sensor_id;sensor_type;location;lat;lon;timestamp;temperature;humidity
54642;DHT22;40536;53.194;5.728;2023-03-26T00:01:52;6.70;99.90
54642;DHT22;40536;53.194;5.728;2023-03-26T00:04:18;6.70;99.90
54642;DHT22;40536;53.194;5.728;2023-03-26T00:06:46;6.70;99.90
54642;DHT22;40536;53.194;5.728;2023-03-26T00:09:14;6.80;99.90
54642;DHT22;40536;53.194;5.728;2023-03-26T00:11:41;6.80;99.90
54642;DHT22;40536;53.194;5.728;2023-03-26T00:14:08;7.10;99.90
54642;DHT22;40536;53.194;5.728;2023-03-26T00:16:34;6.70;99.90
54642;DHT22;40536;53.194;5.728;2023-03-26T00:19:00;6.80;99.90
54642;DHT22;40536;53.194;5.728;2023-03-26T00:21:29;6.60;99.90
54642;DHT22;40536;53.194;5.728;2023-03-26T00:24:00;6.70;99.90
54642;DHT22;40536;53.194;5.728;2023-03-26T00:26:29;6.70;99.90
54642;DHT22;40536;53.194;5.728;2023-03-26T00:28:56;6.80;99.90
54642;DHT22;40536;53.194;5.728;2023-03-26T00:31:22;7.10;99.90
54642;DHT22;40536;53.194;5.728;2023-03-26T00:33:50;6.60;99.90
54642;DHT22;40536;53.194;5.728;2023-03-26T00:36:22;6.60;99.90
54642;DHT22;40536;53.194;5.728;2023-03-26T00:38:50;6.60;99.90
54642;DHT22;40536;53.194;5.728;2023-03-26T00:41:18;6.80;99.90
54642;DHT22;40536;53.194;5.728;2023-03-26T00:43:54;7.50;99.90
54642;DHT22;40536;53.194;5.728;2023-03-26T00:46:22;6.60;99.90
54642;DHT22;40536;53.194;5.728;2023-03-26T00:48:48;6.70;99.90
54642;DHT22;40536;53.194;5.728;2023-03-26T00:51:16;6.60;99.90
54642;DHT22;40536;53.194;5.728;2023-03-26T00:53:46;6.60;99.90
54642;DHT22;40536;53.194;5.728;2023-03-26T00:56:12;6.60;99.90
54642;DHT22;40536;53.194;5.728;2023-03-26T00:58:38;6.60;99.90
54642;DHT22;40536;53.194;5.728;2023-03-26T01:01:11;6.80;99.90
54642;DHT22;40536;53.194;5.728;2023-03-26T01:03:42;6.60;99.90
54642;DHT22;40536;53.194;5.728;2023-03-26T01:06:28;6.50;99.90
54642;DHT22;40536;53.194;5.728;2023-03-26T01:09:18;6.60;99.90
54642;DHT22;40536;53.194;5.728;2023-03-26T01:11:45;6.50;99.90
54642;DHT22;40536;53.194;5.728;2023-03-26T01:14:25;6.60;99.90
54642;DHT22;40536;53.194;5.728;2023-03-26T01:16:54;7.20;99.90
54642;DHT22;40536;53.194;5.728;2023-03-26T01:22:14;6.40;99.90
54642;DHT22;40536;53.194;5.728;2023-03-26T01:24:41;6.40;99.90
54642;DHT22;40536;53.194;5.728;2023-03-26T01:27:43;6.50;99.90
54642;DHT22;40536;53.194;5.728;2023-03-26T01:35:51;6.50;99.90
54642;DHT22;40536;53.194;5.728;2023-03-26T01:38:49;6.50;99.90
54642;DHT22;40536;53.194;5.728;2023-03-26T01:41:45;6.80;99.90
54642;DHT22;40536;53.194;5.728;2023-03-26T01:46:58;6.50;99.90
54642;DHT22;40536;53.194;5.728;2023-03-26T01:49:29;6.50;99.90
54642;DHT22;40536;53.194;5.728;2023-03-26T01:51:56;6.50;99.90
54642;DHT22;40536;53.194;5.728;2023-03-26T01:54:25;7.00;99.90
54642;DHT22;40536;53.194;5.728;2023-03-26T02:02:20;6.50;99.90
54642;DHT22;40536;53.194;5.728;2023-03-26T02:04:59;6.50;99.90
54642;DHT22;40536;53.194;5.728;2023-03-26T02:07:33;6.50;99.90
54642;DHT22;40536;53.194;5.728;2023-03-26T02:10:28;6.60;99.90
54642;DHT22;40536;53.194;5.728;2023-03-26T02:12:54;6.60;99.90
54642;DHT22;40536;53.194;5.728;2023-03-26T02:15:20;6.60;99.90
54642;DHT22;40536;53.194;5.728;2023-03-26T02:17:46;6.60;99.90
54642;DHT22;40536;53.194;5.728;2023-03-26T02:20:14;6.60;99.90
54642;DHT22;40536;53.194;5.728;2023-03-26T02:22:40;6.60;99.90
54642;DHT22;40536;53.194;5.728;2023-03-26T02:25:18;6.50;99.90
54642;DHT22;40536;53.194;5.728;2023-03-26T02:27:45;6.50;99.90
54642;DHT22;40536;53.194;5.728;2023-03-26T02:30:14;6.60;99.90
54642;DHT22;40536;53.194;5.728;2023-03-26T02:32:40;6.30;99.90
54642;DHT22;40536;53.194;5.728;2023-03-26T02:35:09;6.50;99.90
54642;DHT22;40536;53.194;5.728;2023-03-26T02:37:35;6.10;99.90
54642;DHT22;40536;53.194;5.728;2023-03-26T02:40:01;6.40;99.90
54642;DHT22;40536;53.194;5.728;2023-03-26T02:42:29;6.20;99.90
54642;DHT22;40536;53.194;5.728;2023-03-26T02:44:55;5.90;99.90
54642;DHT22;40536;53.194;5.728;2023-03-26T02:47:20;5.80;99.90
54642;DHT22;40536;53.194;5.728;2023-03-26T02:49:46;6.10;99.90
54642;DHT22;40536;53.194;5.728;2023-03-26T02:52:12;6.30;99.90
54642;DHT22;40536;53.194;5.728;2023-03-26T02:54:41;5.90;99.90
54642;DHT22;40536;53.194;5.728;2023-03-26T02:57:07;6.20;99.90
54642;DHT22;40536;53.194;5.728;2023-03-26T02:59:32;5.50;99.90
54642;DHT22;40536;53.194;5.728;2023-03-26T03:01:58;5.50;99.90
54642;DHT22;40536;53.194;5.728;2023-03-26T03:04:23;6.50;99.90
54642;DHT22;40536;53.194;5.728;2023-03-26T03:06:49;5.30;99.90
54642;DHT22;40536;53.194;5.728;2023-03-26T03:09:17;5.80;99.90
54642;DHT22;40536;53.194;5.728;2023-03-26T03:11:44;5.20;99.90
54642;DHT22;40536;53.194;5.728;2023-03-26T03:14:10;6.20;99.90
54642;DHT22;40536;53.194;5.728;2023-03-26T03:16:35;6.30;99.90
54642;DHT22;40536;53.194;5.728;2023-03-26T03:19:01;5.10;99.90
54642;DHT22;40536;53.194;5.728;2023-03-26T03:21:27;5.80;99.90
54642;DHT22;40536;53.194;5.728;2023-03-26T03:23:54;5.40;99.90
54642;DHT22;40536;53.194;5.728;2023-03-26T03:26:22;5.10;99.90
54642;DHT22;40536;53.194;5.728;2023-03-26T03:28:52;5.50;99.90
54642;DHT22;40536;53.194;5.728;2023-03-26T03:31:19;5.40;99.90
54642;DHT22;40536;53.194;5.728;2023-03-26T03:33:46;5.40;99.90
54642;DHT22;40536;53.194;5.728;2023-03-26T03:36:18;6.30;99.90
54642;DHT22;40536;53.194;5.728;2023-03-26T03:38:46;5.60;99.90
54642;DHT22;40536;53.194;5.728;2023-03-26T03:41:12;6.10;99.90
54642;DHT22;40536;53.194;5.728;2023-03-26T03:43:38;5.90;99.90
54642;DHT22;40536;53.194;5.728;2023-03-26T03:46:04;6.00;99.90
54642;DHT22;40536;53.194;5.728;2023-03-26T03:48:29;5.20;99.90
54642;DHT22;40536;53.194;5.728;2023-03-26T03:50:55;5.10;99.90
54642;DHT22;40536;53.194;5.728;2023-03-26T03:53:22;6.00;99.90
54642;DHT22;40536;53.194;5.728;2023-03-26T03:55:53;6.20;99.90
54642;DHT22;40536;53.194;5.728;2023-03-26T03:58:23;6.40;99.90
54642;DHT22;40536;53.194;5.728;2023-03-26T04:00:50;5.10;99.90
54642;DHT22;40536;53.194;5.728;2023-03-26T04:03:17;5.70;99.90
54642;DHT22;40536;53.194;5.728;2023-03-26T04:05:44;5.10;99.90
54642;DHT22;40536;53.194;5.728;2023-03-26T04:08:22;5.60;99.90
54642;DHT22;40536;53.194;5.728;2023-03-26T04:10:49;5.10;99.90
54642;DHT22;40536;53.194;5.728;2023-03-26T04:13:15;5.20;99.90
54642;DHT22;40536;53.194;5.728;2023-03-26T04:15:41;6.30;99.90
54642;DHT22;40536;53.194;5.728;2023-03-26T04:18:07;5.20;99.90
54642;DHT22;40536;53.194;5.728;2023-03-26T04:20:38;6.20;99.90
54642;DHT22;40536;53.194;5.728;2023-03-26T04:23:05;5.70;99.90
54642;DHT22;40536;53.194;5.728;2023-03-26T04:25:33;5.30;99.90
54642;DHT22;40536;53.194;5.728;2023-03-26T04:28:02;5.80;99.90
54642;DHT22;40536;53.194;5.728;2023-03-26T04:30:31;5.40;99.90
54642;DHT22;40536;53.194;5.728;2023-03-26T04:32:59;6.30;99.90
54642;DHT22;40536;53.194;5.728;2023-03-26T04:35:32;5.40;99.90
54642;DHT22;40536;53.194;5.728;2023-03-26T04:38:03;5.40;99.90
54642;DHT22;40536;53.194;5.728;2023-03-26T04:40:32;6.20;99.90
54642;DHT22;40536;53.194;5.728;2023-03-26T04:43:02;5.50;99.90
54642;DHT22;40536;53.194;5.728;2023-03-26T04:45:29;5.70;99.90
54642;DHT22;40536;53.194;5.728;2023-03-26T04:47:58;5.80;99.90
54642;DHT22;40536;53.194;5.728;2023-03-26T04:50:24;6.00;99.90
54642;DHT22;40536;53.194;5.728;2023-03-26T04:52:52;5.50;99.90
54642;DHT22;40536;53.194;5.728;2023-03-26T04:55:24;5.80;99.90
54642;DHT22;40536;53.194;5.728;2023-03-26T04:57:55;6.30;99.90
54642;DHT22;40536;53.194;5.728;2023-03-26T05:00:22;6.20;99.90
54642;DHT22;40536;53.194;5.728;2023-03-26T05:02:48;5.40;99.90
54642;DHT22;40536;53.194;5.728;2023-03-26T05:05:15;5.50;99.90
54642;DHT22;40536;53.194;5.728;2023-03-26T05:07:41;5.40;99.90
54642;DHT22;40536;53.194;5.728;2023-03-26T05:10:07;5.40;99.90
54642;DHT22;40536;53.194;5.728;2023-03-26T05:12:33;5.40;99.90
54642;DHT22;40536;53.194;5.728;2023-03-26T05:14:59;5.50;99.90
54642;DHT22;40536;53.194;5.728;2023-03-26T05:17:25;5.60;99.90
54642;DHT22;40536;53.194;5.728;2023-03-26T05:19:51;5.40;99.90
54642;DHT22;40536;53.194;5.728;2023-03-26T05:22:19;5.40;99.90
54642;DHT22;40536;53.194;5.728;2023-03-26T05:24:45;5.40;99.90
54642;DHT22;40536;53.194;5.728;2023-03-26T05:27:15;5.90;99.90
54642;DHT22;40536;53.194;5.728;2023-03-26T05:29:46;5.30;99.90
54642;DHT22;40536;53.194;5.728;2023-03-26T05:32:12;5.30;99.90
54642;DHT22;40536;53.194;5.728;2023-03-26T05:34:40;6.60;99.90
54642;DHT22;40536;53.194;5.728;2023-03-26T05:37:06;5.30;99.90
54642;DHT22;40536;53.194;5.728;2023-03-26T05:39:33;5.30;99.90
54642;DHT22;40536;53.194;5.728;2023-03-26T05:42:00;5.30;99.90
54642;DHT22;40536;53.194;5.728;2023-03-26T05:44:26;5.40;99.90
54642;DHT22;40536;53.194;5.728;2023-03-26T05:46:51;5.30;99.90
54642;DHT22;40536;53.194;5.728;2023-03-26T05:49:17;5.50;99.90
54642;DHT22;40536;53.194;5.728;2023-03-26T05:51:42;5.30;99.90
54642;DHT22;40536;53.194;5.728;2023-03-26T05:54:08;6.20;99.90
54642;DHT22;40536;53.194;5.728;2023-03-26T05:56:34;5.90;99.90
54642;DHT22;40536;53.194;5.728;2023-03-26T05:59:00;6.40;99.90
54642;DHT22;40536;53.194;5.728;2023-03-26T06:01:26;5.60;99.90
54642;DHT22;40536;53.194;5.728;2023-03-26T06:03:53;5.90;99.90
54642;DHT22;40536;53.194;5.728;2023-03-26T06:06:19;6.00;99.90
54642;DHT22;40536;53.194;5.728;2023-03-26T06:08:50;5.90;99.90
54642;DHT22;40536;53.194;5.728;2023-03-26T06:11:17;6.60;99.90
54642;DHT22;40536;53.194;5.728;2023-03-26T06:13:44;5.60;99.90
54642;DHT22;40536;53.194;5.728;2023-03-26T06:16:11;6.20;99.90
54642;DHT22;40536;53.194;5.728;2023-03-26T06:18:37;5.50;99.90
54642;DHT22;40536;53.194;5.728;2023-03-26T06:21:03;6.10;99.90
54642;DHT22;40536;53.194;5.728;2023-03-26T06:23:30;5.60;99.90
54642;DHT22;40536;53.194;5.728;2023-03-26T06:25:56;6.00;99.90
54642;DHT22;40536;53.194;5.728;2023-03-26T06:28:22;5.60;99.90
54642;DHT22;40536;53.194;5.728;2023-03-26T06:30:48;6.00;99.90
54642;DHT22;40536;53.194;5.728;2023-03-26T06:33:13;6.70;99.90
54642;DHT22;40536;53.194;5.728;2023-03-26T06:35:39;5.70;99.90
54642;DHT22;40536;53.194;5.728;2023-03-26T06:38:07;5.90;99.90
54642;DHT22;40536;53.194;5.728;2023-03-26T06:40:33;6.00;99.90
54642;DHT22;40536;53.194;5.728;2023-03-26T06:42:59;6.10;99.90
54642;DHT22;40536;53.194;5.728;2023-03-26T06:45:26;6.20;99.90
54642;DHT22;40536;53.194;5.728;2023-03-26T06:47:52;6.30;99.90
54642;DHT22;40536;53.194;5.728;2023-03-26T06:50:18;6.90;99.90
54642;DHT22;40536;53.194;5.728;2023-03-26T06:52:44;6.60;99.90
54642;DHT22;40536;53.194;5.728;2023-03-26T06:55:10;6.90;99.90
54642;DHT22;40536;53.194;5.728;2023-03-26T06:57:36;6.90;99.90
54642;DHT22;40536;53.194;5.728;2023-03-26T07:00:04;7.00;99.90
54642;DHT22;40536;53.194;5.728;2023-03-26T07:02:30;7.00;99.90
54642;DHT22;40536;53.194;5.728;2023-03-26T07:04:57;7.10;99.90
54642;DHT22;40536;53.194;5.728;2023-03-26T07:07:22;6.90;99.90
54642;DHT22;40536;53.194;5.728;2023-03-26T07:09:49;6.90;99.90
54642;DHT22;40536;53.194;5.728;2023-03-26T07:12:15;6.90;99.90
54642;DHT22;40536;53.194;5.728;2023-03-26T07:14:41;7.90;99.90
54642;DHT22;40536;53.194;5.728;2023-03-26T07:17:07;7.30;99.90
54642;DHT22;40536;53.194;5.728;2023-03-26T07:19:33;7.10;99.90
54642;DHT22;40536;53.194;5.728;2023-03-26T07:21:59;6.80;99.90
54642;DHT22;40536;53.194;5.728;2023-03-26T07:24:25;6.90;99.90
54642;DHT22;40536;53.194;5.728;2023-03-26T07:27:02;7.00;99.90
54642;DHT22;40536;53.194;5.728;2023-03-26T07:29:45;7.10;99.90
54642;DHT22;40536;53.194;5.728;2023-03-26T07:40:40;7.60;99.90
54642;DHT22;40536;53.194;5.728;2023-03-26T07:45:49;7.70;99.90
54642;DHT22;40536;53.194;5.728;2023-03-26T07:48:24;7.70;99.90
54642;DHT22;40536;53.194;5.728;2023-03-26T07:50:55;7.70;99.90
54642;DHT22;40536;53.194;5.728;2023-03-26T07:53:22;7.70;99.90
54642;DHT22;40536;53.194;5.728;2023-03-26T08:01:37;7.70;99.90
54642;DHT22;40536;53.194;5.728;2023-03-26T08:06:57;7.80;99.90
54642;DHT22;40536;53.194;5.728;2023-03-26T08:09:40;7.90;99.90
54642;DHT22;40536;53.194;5.728;2023-03-26T08:15:43;8.10;99.90
54642;DHT22;40536;53.194;5.728;2023-03-26T08:18:53;8.30;99.90
54642;DHT22;40536;53.194;5.728;2023-03-26T08:21:18;8.20;99.90
54642;DHT22;40536;53.194;5.728;2023-03-26T08:23:54;8.40;99.90
54642;DHT22;40536;53.194;5.728;2023-03-26T08:26:52;8.40;99.90
54642;DHT22;40536;53.194;5.728;2023-03-26T08:29:38;8.60;99.90
54642;DHT22;40536;53.194;5.728;2023-03-26T08:32:15;8.60;99.90
54642;DHT22;40536;53.194;5.728;2023-03-26T08:34:43;8.70;99.90
54642;DHT22;40536;53.194;5.728;2023-03-26T08:37:09;8.80;99.90
54642;DHT22;40536;53.194;5.728;2023-03-26T08:39:36;8.90;99.90
54642;DHT22;40536;53.194;5.728;2023-03-26T08:50:42;9.20;99.90
54642;DHT22;40536;53.194;5.728;2023-03-26T09:24:41;10.30;99.90
54642;DHT22;40536;53.194;5.728;2023-03-26T09:27:35;10.40;99.90
54642;DHT22;40536;53.194;5.728;2023-03-26T09:30:37;10.30;99.90
54642;DHT22;40536;53.194;5.728;2023-03-26T09:41:19;9.60;99.90
54642;DHT22;40536;53.194;5.728;2023-03-26T09:44:57;9.50;99.90
54642;DHT22;40536;53.194;5.728;2023-03-26T09:53:07;9.30;99.90
54642;DHT22;40536;53.194;5.728;2023-03-26T10:00:50;9.20;99.90
54642;DHT22;40536;53.194;5.728;2023-03-26T10:06:21;9.40;99.90
54642;DHT22;40536;53.194;5.728;2023-03-26T10:23:06;9.60;99.90
54642;DHT22;40536;53.194;5.728;2023-03-26T10:42:03;9.80;99.90
54642;DHT22;40536;53.194;5.728;2023-03-26T10:45:10;9.80;99.90
54642;DHT22;40536;53.194;5.728;2023-03-26T10:48:11;9.90;99.90
54642;DHT22;40536;53.194;5.728;2023-03-26T10:55:52;10.00;99.90
54642;DHT22;40536;53.194;5.728;2023-03-26T10:58:28;10.20;99.90
54642;DHT22;40536;53.194;5.728;2023-03-26T11:01:22;10.50;99.90
54642;DHT22;40536;53.194;5.728;2023-03-26T11:03:53;10.40;99.90
54642;DHT22;40536;53.194;5.728;2023-03-26T11:06:29;10.40;99.90
54642;DHT22;40536;53.194;5.728;2023-03-26T11:25:14;10.80;99.90
54642;DHT22;40536;53.194;5.728;2023-03-26T11:33:09;10.30;99.90
54642;DHT22;40536;53.194;5.728;2023-03-26T11:35:57;10.00;99.90
54642;DHT22;40536;53.194;5.728;2023-03-26T11:38:40;9.70;99.90
54642;DHT22;40536;53.194;5.728;2023-03-26T11:43:46;9.60;99.90
54642;DHT22;40536;53.194;5.728;2023-03-26T11:46:17;9.70;99.90
54642;DHT22;40536;53.194;5.728;2023-03-26T11:48:52;10.00;99.90
54642;DHT22;40536;53.194;5.728;2023-03-26T11:53:52;10.20;99.90
54642;DHT22;40536;53.194;5.728;2023-03-26T11:59:10;10.60;99.90
54642;DHT22;40536;53.194;5.728;2023-03-26T12:04:13;10.90;99.90
54642;DHT22;40536;53.194;5.728;2023-03-26T12:06:58;10.90;99.90
54642;DHT22;40536;53.194;5.728;2023-03-26T12:09:29;10.80;99.90
54642;DHT22;40536;53.194;5.728;2023-03-26T12:12:05;10.60;99.90
54642;DHT22;40536;53.194;5.728;2023-03-26T12:14:33;10.40;99.90
54642;DHT22;40536;53.194;5.728;2023-03-26T12:17:07;10.20;99.90
54642;DHT22;40536;53.194;5.728;2023-03-26T12:19:36;10.00;99.90
54642;DHT22;40536;53.194;5.728;2023-03-26T12:22:02;9.90;99.90
54642;DHT22;40536;53.194;5.728;2023-03-26T12:24:33;9.80;99.90
54642;DHT22;40536;53.194;5.728;2023-03-26T12:27:01;9.80;99.90
54642;DHT22;40536;53.194;5.728;2023-03-26T12:29:27;9.80;99.90
54642;DHT22;40536;53.194;5.728;2023-03-26T12:32:07;9.70;99.90
54642;DHT22;40536;53.194;5.728;2023-03-26T12:34:38;9.60;99.90
54642;DHT22;40536;53.194;5.728;2023-03-26T12:37:06;9.50;99.90
54642;DHT22;40536;53.194;5.728;2023-03-26T12:39:41;9.50;99.90
54642;DHT22;40536;53.194;5.728;2023-03-26T12:42:31;9.50;99.90
54642;DHT22;40536;53.194;5.728;2023-03-26T12:44:57;9.60;99.90
54642;DHT22;40536;53.194;5.728;2023-03-26T12:47:28;9.60;99.90
54642;DHT22;40536;53.194;5.728;2023-03-26T12:49:56;9.70;99.90
54642;DHT22;40536;53.194;5.728;2023-03-26T12:52:25;9.80;99.90
54642;DHT22;40536;53.194;5.728;2023-03-26T13:04:02;9.90;99.90
54642;DHT22;40536;53.194;5.728;2023-03-26T13:06:41;9.60;99.90
54642;DHT22;40536;53.194;5.728;2023-03-26T13:11:53;9.30;99.90
54642;DHT22;40536;53.194;5.728;2023-03-26T13:23:21;9.20;99.90
54642;DHT22;40536;53.194;5.728;2023-03-26T13:25:36;8.90;99.90
54642;DHT22;40536;53.194;5.728;2023-03-26T13:31:27;8.50;99.90
54642;DHT22;40536;53.194;5.728;2023-03-26T13:39:32;8.70;99.90
54642;DHT22;40536;53.194;5.728;2023-03-26T13:45:02;8.70;99.90
54642;DHT22;40536;53.194;5.728;2023-03-26T13:47:35;8.70;99.90
54642;DHT22;40536;53.194;5.728;2023-03-26T13:52:43;8.80;99.90
54642;DHT22;40536;53.194;5.728;2023-03-26T13:55:34;8.90;99.90
54642;DHT22;40536;53.194;5.728;2023-03-26T14:03:22;8.90;99.90
54642;DHT22;40536;53.194;5.728;2023-03-26T14:05:54;8.80;99.90
54642;DHT22;40536;53.194;5.728;2023-03-26T14:08:31;8.80;99.90
54642;DHT22;40536;53.194;5.728;2023-03-26T14:15:13;8.70;99.90
54642;DHT22;40536;53.194;5.728;2023-03-26T14:17:55;8.70;99.90
54642;DHT22;40536;53.194;5.728;2023-03-26T14:32:04;8.60;99.90
54642;DHT22;40536;53.194;5.728;2023-03-26T14:53:47;8.30;99.90
54642;DHT22;40536;53.194;5.728;2023-03-26T14:56:28;8.30;99.90
54642;DHT22;40536;53.194;5.728;2023-03-26T15:02:09;8.20;99.90
54642;DHT22;40536;53.194;5.728;2023-03-26T15:07:40;8.10;99.90
54642;DHT22;40536;53.194;5.728;2023-03-26T15:16:19;8.00;99.90
54642;DHT22;40536;53.194;5.728;2023-03-26T15:39:44;8.20;99.90
54642;DHT22;40536;53.194;5.728;2023-03-26T15:42:26;8.00;99.90
54642;DHT22;40536;53.194;5.728;2023-03-26T15:45:12;7.90;99.90
54642;DHT22;40536;53.194;5.728;2023-03-26T15:55:31;7.80;99.90
54642;DHT22;40536;53.194;5.728;2023-03-26T15:58:17;7.70;99.90
54642;DHT22;40536;53.194;5.728;2023-03-26T16:01:04;7.70;99.90
54642;DHT22;40536;53.194;5.728;2023-03-26T16:06:48;7.40;99.90
54642;DHT22;40536;53.194;5.728;2023-03-26T16:09:56;7.30;99.90
54642;DHT22;40536;53.194;5.728;2023-03-26T16:14:45;7.50;99.90
54642;DHT22;40536;53.194;5.728;2023-03-26T16:17:22;7.70;99.90
54642;DHT22;40536;53.194;5.728;2023-03-26T16:22:40;8.10;99.90
54642;DHT22;40536;53.194;5.728;2023-03-26T16:25:24;8.10;99.90
54642;DHT22;40536;53.194;5.728;2023-03-26T16:28:26;8.10;99.90
54642;DHT22;40536;53.194;5.728;2023-03-26T16:31:22;7.90;99.90
54642;DHT22;40536;53.194;5.728;2023-03-26T16:34:19;7.70;99.90
54642;DHT22;40536;53.194;5.728;2023-03-26T16:36:47;7.60;99.90
54642;DHT22;40536;53.194;5.728;2023-03-26T16:39:40;7.40;99.90
54642;DHT22;40536;53.194;5.728;2023-03-26T16:42:33;7.40;99.90
54642;DHT22;40536;53.194;5.728;2023-03-26T16:45:27;7.30;99.90
54642;DHT22;40536;53.194;5.728;2023-03-26T16:55:54;7.50;99.90
54642;DHT22;40536;53.194;5.728;2023-03-26T17:03:46;7.40;99.90
54642;DHT22;40536;53.194;5.728;2023-03-26T17:12:31;7.20;99.90
54642;DHT22;40536;53.194;5.728;2023-03-26T17:15:21;7.10;99.90
54642;DHT22;40536;53.194;5.728;2023-03-26T17:18:16;6.90;99.90
54642;DHT22;40536;53.194;5.728;2023-03-26T17:24:14;6.50;99.90
54642;DHT22;40536;53.194;5.728;2023-03-26T17:29:30;6.30;99.90
54642;DHT22;40536;53.194;5.728;2023-03-26T17:32:09;6.10;99.90
54642;DHT22;40536;53.194;5.728;2023-03-26T17:34:41;6.10;99.90
54642;DHT22;40536;53.194;5.728;2023-03-26T17:42:18;6.00;99.90
54642;DHT22;40536;53.194;5.728;2023-03-26T17:44:55;5.90;99.90
54642;DHT22;40536;53.194;5.728;2023-03-26T17:50:00;5.80;99.90
54642;DHT22;40536;53.194;5.728;2023-03-26T17:52:43;6.30;99.90
54642;DHT22;40536;53.194;5.728;2023-03-26T17:55:19;5.60;99.90
54642;DHT22;40536;53.194;5.728;2023-03-26T17:57:52;5.50;99.90
54642;DHT22;40536;53.194;5.728;2023-03-26T18:00:22;5.50;99.90
54642;DHT22;40536;53.194;5.728;2023-03-26T18:03:03;5.40;99.90
54642;DHT22;40536;53.194;5.728;2023-03-26T18:05:32;5.30;99.90
54642;DHT22;40536;53.194;5.728;2023-03-26T18:14:12;5.20;99.90
54642;DHT22;40536;53.194;5.728;2023-03-26T18:16:47;5.10;99.90
54642;DHT22;40536;53.194;5.728;2023-03-26T18:19:15;5.00;99.90
54642;DHT22;40536;53.194;5.728;2023-03-26T18:22:04;6.50;99.90
54642;DHT22;40536;53.194;5.728;2023-03-26T18:24:36;5.20;99.90
54642;DHT22;40536;53.194;5.728;2023-03-26T18:27:14;4.90;99.90
54642;DHT22;40536;53.194;5.728;2023-03-26T18:29:45;4.80;99.90
54642;DHT22;40536;53.194;5.728;2023-03-26T18:32:24;4.20;99.90
54642;DHT22;40536;53.194;5.728;2023-03-26T18:34:59;5.40;99.90
54642;DHT22;40536;53.194;5.728;2023-03-26T18:40:09;4.70;99.90
54642;DHT22;40536;53.194;5.728;2023-03-26T18:42:43;4.70;99.90
54642;DHT22;40536;53.194;5.728;2023-03-26T18:47:48;5.40;99.90
54642;DHT22;40536;53.194;5.728;2023-03-26T18:50:20;4.50;99.90
54642;DHT22;40536;53.194;5.728;2023-03-26T18:52:47;4.60;99.90
54642;DHT22;40536;53.194;5.728;2023-03-26T18:55:13;4.50;99.90
54642;DHT22;40536;53.194;5.728;2023-03-26T18:57:41;4.60;99.90
54642;DHT22;40536;53.194;5.728;2023-03-26T19:00:19;5.30;99.90
54642;DHT22;40536;53.194;5.728;2023-03-26T19:02:48;4.40;99.90
54642;DHT22;40536;53.194;5.728;2023-03-26T19:05:16;4.40;99.90
54642;DHT22;40536;53.194;5.728;2023-03-26T19:07:43;4.40;99.90
54642;DHT22;40536;53.194;5.728;2023-03-26T19:10:17;4.30;99.90
54642;DHT22;40536;53.194;5.728;2023-03-26T19:12:56;4.40;99.90
54642;DHT22;40536;53.194;5.728;2023-03-26T19:15:24;4.50;99.90
54642;DHT22;40536;53.194;5.728;2023-03-26T19:17:54;4.80;99.90
54642;DHT22;40536;53.194;5.728;2023-03-26T19:20:27;4.20;99.90
54642;DHT22;40536;53.194;5.728;2023-03-26T19:22:54;4.20;99.90
54642;DHT22;40536;53.194;5.728;2023-03-26T19:25:40;4.20;99.90
54642;DHT22;40536;53.194;5.728;2023-03-26T19:28:17;4.20;99.90
54642;DHT22;40536;53.194;5.728;2023-03-26T19:30:44;4.30;99.90
54642;DHT22;40536;53.194;5.728;2023-03-26T19:33:17;4.40;99.90
54642;DHT22;40536;53.194;5.728;2023-03-26T19:35:50;4.30;99.90
54642;DHT22;40536;53.194;5.728;2023-03-26T19:38:24;4.20;99.90
54642;DHT22;40536;53.194;5.728;2023-03-26T19:40:51;4.30;99.90
54642;DHT22;40536;53.194;5.728;2023-03-26T19:43:18;4.20;99.90
54642;DHT22;40536;53.194;5.728;2023-03-26T19:45:44;4.20;99.90
54642;DHT22;40536;53.194;5.728;2023-03-26T19:48:14;4.30;99.90
54642;DHT22;40536;53.194;5.728;2023-03-26T19:50:51;4.20;99.90
54642;DHT22;40536;53.194;5.728;2023-03-26T19:53:21;4.20;99.90
54642;DHT22;40536;53.194;5.728;2023-03-26T19:55:56;5.50;99.90
54642;DHT22;40536;53.194;5.728;2023-03-26T19:58:24;4.90;99.90
54642;DHT22;40536;53.194;5.728;2023-03-26T20:00:50;5.40;99.90
54642;DHT22;40536;53.194;5.728;2023-03-26T20:03:22;5.20;99.90
54642;DHT22;40536;53.194;5.728;2023-03-26T20:05:48;4.40;99.90
54642;DHT22;40536;53.194;5.728;2023-03-26T20:08:15;4.30;99.90
54642;DHT22;40536;53.194;5.728;2023-03-26T20:10:41;4.90;99.90
54642;DHT22;40536;53.194;5.728;2023-03-26T20:13:15;5.40;99.90
54642;DHT22;40536;53.194;5.728;2023-03-26T20:15:44;5.50;99.90
54642;DHT22;40536;53.194;5.728;2023-03-26T20:18:11;4.90;99.90
54642;DHT22;40536;53.194;5.728;2023-03-26T20:20:36;4.50;99.90
54642;DHT22;40536;53.194;5.728;2023-03-26T20:23:09;4.40;99.90
54642;DHT22;40536;53.194;5.728;2023-03-26T20:25:35;4.40;99.90
54642;DHT22;40536;53.194;5.728;2023-03-26T20:28:04;4.50;99.90
54642;DHT22;40536;53.194;5.728;2023-03-26T20:30:30;4.60;99.90
54642;DHT22;40536;53.194;5.728;2023-03-26T20:32:58;5.40;99.90
54642;DHT22;40536;53.194;5.728;2023-03-26T20:35:25;4.30;99.90
54642;DHT22;40536;53.194;5.728;2023-03-26T20:37:51;4.30;99.90
54642;DHT22;40536;53.194;5.728;2023-03-26T20:40:18;4.30;99.90
54642;DHT22;40536;53.194;5.728;2023-03-26T20:42:44;4.30;99.90
54642;DHT22;40536;53.194;5.728;2023-03-26T20:47:39;4.30;99.90
54642;DHT22;40536;53.194;5.728;2023-03-26T20:50:05;5.70;99.90
54642;DHT22;40536;53.194;5.728;2023-03-26T20:52:31;4.30;99.90
54642;DHT22;40536;53.194;5.728;2023-03-26T20:54:58;4.20;99.90
54642;DHT22;40536;53.194;5.728;2023-03-26T20:57:24;4.30;99.90
54642;DHT22;40536;53.194;5.728;2023-03-26T20:59:51;5.80;99.90
54642;DHT22;40536;53.194;5.728;2023-03-26T21:02:19;5.40;99.90
54642;DHT22;40536;53.194;5.728;2023-03-26T21:04:45;4.70;99.90
54642;DHT22;40536;53.194;5.728;2023-03-26T21:07:13;4.20;99.90
54642;DHT22;40536;53.194;5.728;2023-03-26T21:09:40;4.80;99.90
54642;DHT22;40536;53.194;5.728;2023-03-26T21:14:43;4.30;99.90
54642;DHT22;40536;53.194;5.728;2023-03-26T21:17:15;4.40;99.90
54642;DHT22;40536;53.194;5.728;2023-03-26T21:19:41;4.40;99.90
54642;DHT22;40536;53.194;5.728;2023-03-26T21:22:30;4.50;99.90
54642;DHT22;40536;53.194;5.728;2023-03-26T21:30:16;4.40;99.90
54642;DHT22;40536;53.194;5.728;2023-03-26T21:32:44;4.40;99.90
54642;DHT22;40536;53.194;5.728;2023-03-26T21:35:11;4.30;99.90
54642;DHT22;40536;53.194;5.728;2023-03-26T21:37:41;4.30;99.90
54642;DHT22;40536;53.194;5.728;2023-03-26T21:40:15;4.20;99.90
54642;DHT22;40536;53.194;5.728;2023-03-26T21:42:46;4.20;99.90
54642;DHT22;40536;53.194;5.728;2023-03-26T21:45:13;4.20;99.90
54642;DHT22;40536;53.194;5.728;2023-03-26T21:47:40;4.10;99.90
54642;DHT22;40536;53.194;5.728;2023-03-26T21:50:06;4.10;99.90
54642;DHT22;40536;53.194;5.728;2023-03-26T21:52:33;4.10;99.90
54642;DHT22;40536;53.194;5.728;2023-03-26T21:54:59;4.10;99.90
54642;DHT22;40536;53.194;5.728;2023-03-26T21:58:02;4.00;99.90
54642;DHT22;40536;53.194;5.728;2023-03-26T22:03:33;3.90;99.90
54642;DHT22;40536;53.194;5.728;2023-03-26T22:08:34;4.30;99.90